Time;durP1;ratioP1;P1;durP2;ratioP2;P2;SDS_P1;SDS_P2;PMS_P1;PMS_P2;Temp;Humidity;BMP_temperature;BMP_pressure;BME280_temperature;BME280_humidity;BME280_pressure;Samples;Min_cycle;Max_cycle;Signal;HPM_P1;HPM_P2
2022/06/11 00:00:28;;;;;;;134.40;44.20;;;;;;;14.58;100.00;99421.08;105128;1271;61316;-72
2022/06/11 00:03:03;;;;;;;116.10;39.60;;;;;;;14.57;100.00;99425.27;105174;1269;61173;-72
2022/06/11 00:05:29;;;;;;;53.70;38.00;;;;;;;14.56;100.00;99424.48;105153;1271;75323;-72
2022/06/11 00:07:57;;;;;;;49.90;37.60;;;;;;;14.55;100.00;99433.85;104993;1271;69421;-72
2022/06/11 00:10:24;;;;;;;43.40;36.10;;;;;;;14.52;100.00;99429.95;105129;1271;73655;-71
2022/06/11 00:12:50;;;;;;;35.20;30.90;;;;;;;14.47;100.00;99431.69;104903;1271;61300;-72
2022/06/11 00:15:17;;;;;;;57.70;33.50;;;;;;;14.43;100.00;99429.55;105197;1271;61269;-72
2022/06/11 00:17:44;;;;;;;90.20;34.40;;;;;;;14.38;100.00;99433.12;105136;1271;76008;-73
2022/06/11 00:20:11;;;;;;;83.40;34.70;;;;;;;14.33;100.00;99432.78;105163;1271;68235;-72
2022/06/11 00:22:38;;;;;;;60.70;34.90;;;;;;;14.27;100.00;99432.88;105151;1271;71736;-73
2022/06/11 00:25:06;;;;;;;55.50;32.30;;;;;;;14.22;100.00;99427.36;105146;1271;61310;-73
2022/06/11 00:27:33;;;;;;;96.30;33.70;;;;;;;14.16;100.00;99426.03;105179;1271;61383;-72
2022/06/11 00:29:59;;;;;;;78.60;37.00;;;;;;;14.10;100.00;99428.08;105145;1271;75380;-72
2022/06/11 00:32:26;;;;;;;80.90;36.00;;;;;;;14.08;100.00;99426.65;104985;1271;61163;-73
2022/06/11 00:34:53;;;;;;;85.10;38.60;;;;;;;14.08;100.00;99427.19;105131;1271;73008;-73
2022/06/11 00:37:20;;;;;;;99.60;41.10;;;;;;;14.10;100.00;99429.54;105126;1271;61303;-73
2022/06/11 00:39:47;;;;;;;77.00;37.90;;;;;;;14.12;100.00;99430.62;105165;1271;61636;-72
2022/06/11 00:42:20;;;;;;;104.20;42.00;;;;;;;14.13;100.00;99429.27;104933;1271;76362;-72
2022/06/11 00:44:47;;;;;;;112.90;45.00;;;;;;;14.16;100.00;99430.38;105102;1271;69849;-72
2022/06/11 00:47:16;;;;;;;94.40;42.60;;;;;;;14.17;100.00;99430.25;105166;1271;72046;-72
2022/06/11 00:49:53;;;;;;;172.10;48.70;;;;;;;14.17;100.00;99432.57;104919;1271;61278;-72
2022/06/11 00:52:20;;;;;;;185.10;48.40;;;;;;;14.19;100.00;99436.02;105159;1271;61355;-72
2022/06/11 00:54:54;;;;;;;130.50;46.00;;;;;;;14.20;100.00;99437.55;105140;1271;61284;-72
2022/06/11 00:57:21;;;;;;;119.00;46.00;;;;;;;14.22;100.00;99441.15;105160;1271;69167;-72
2022/06/11 00:59:55;;;;;;;120.70;45.30;;;;;;;14.23;100.00;99440.15;105114;1271;73272;-72
2022/06/11 01:02:22;;;;;;;96.00;43.20;;;;;;;14.24;100.00;99437.98;105103;1271;61687;-73
2022/06/11 01:04:55;;;;;;;88.70;42.60;;;;;;;14.25;100.00;99439.84;104931;1271;61975;-71
2022/06/11 01:07:52;;;;;;;77.80;40.60;;;;;;;14.26;100.00;99442.40;105148;1271;76396;-72
2022/06/11 01:10:38;;;;;;;79.60;41.40;;;;;;;14.26;100.00;99432.94;105200;1271;69063;-71
2022/06/11 01:13:30;;;;;;;74.60;41.70;;;;;;;14.27;100.00;99427.02;105157;1271;73535;-71
2022/06/11 01:16:14;;;;;;;86.10;40.60;;;;;;;14.28;100.00;99427.09;105129;1271;61275;-72
2022/06/11 01:19:08;;;;;;;78.60;47.10;;;;;;;14.27;100.00;99431.27;105143;1271;61187;-72
2022/06/11 01:21:51;;;;;;;82.50;43.90;;;;;;;14.26;100.00;99426.68;105115;1271;74194;-72
2022/06/11 01:24:52;;;;;;;84.40;43.10;;;;;;;14.29;100.00;99422.17;105140;1271;70531;-73
2022/06/11 01:27:36;;;;;;;83.40;42.80;;;;;;;14.32;100.00;99422.36;105135;1271;73233;-71
2022/06/11 01:30:02;;;;;;;85.70;41.80;;;;;;;14.32;100.00;99423.05;105148;1271;61313;-71
2022/06/11 01:32:51;;;;;;;67.20;40.90;;;;;;;14.34;100.00;99423.23;105168;1271;61282;-72
2022/06/11 01:35:34;;;;;;;204.20;44.20;;;;;;;14.37;100.00;99419.43;105178;1271;76650;-73
2022/06/11 01:38:06;;;;;;;126.70;41.90;;;;;;;14.39;100.00;99423.80;104956;1271;69562;-73
2022/06/11 01:40:56;;;;;;;119.40;39.10;;;;;;;14.38;100.00;99426.15;105147;1271;74241;-72
2022/06/11 01:43:31;;;;;;;74.50;38.70;;;;;;;14.35;100.00;99424.63;105164;1271;61341;-72
2022/06/11 01:46:05;;;;;;;140.00;36.70;;;;;;;14.31;100.00;99418.10;105151;1271;61306;-71
2022/06/11 01:48:32;;;;;;;127.20;39.40;;;;;;;14.27;100.00;99420.94;105188;1271;75128;-71
2022/06/11 01:51:25;;;;;;;95.60;39.50;;;;;;;14.23;100.00;99417.63;105138;1271;70480;-72
2022/06/11 01:54:07;;;;;;;58.00;37.60;;;;;;;14.22;100.00;99420.94;105150;1271;73091;-72
2022/06/11 01:56:33;;;;;;;52.30;34.30;;;;;;;14.19;100.00;99421.90;105185;1271;61250;-72
2022/06/11 01:59:18;;;;;;;77.00;35.70;;;;;;;14.15;100.00;99423.26;105135;1271;62151;-72
2022/06/11 02:01:59;;;;;;;56.60;34.30;;;;;;;14.10;100.00;99425.06;105144;1271;75501;-71
2022/06/11 02:04:37;;;;;;;74.50;32.90;;;;;;;14.06;100.00;99430.01;105176;1271;69432;-72
2022/06/11 02:07:22;;;;;;;79.00;34.70;;;;;;;14.03;100.00;99436.14;104938;1271;72570;-72
2022/06/11 02:09:56;;;;;;;92.60;35.80;;;;;;;13.99;100.00;99435.71;105136;1271;61407;-70
2022/06/11 02:12:41;;;;;;;62.90;35.40;;;;;;;13.96;100.00;99436.48;105181;1271;61353;-71
2022/06/11 02:15:22;;;;;;;55.90;34.80;;;;;;;13.93;100.00;99436.46;105171;1271;76090;-71
2022/06/11 02:17:54;;;;;;;80.90;34.60;;;;;;;13.91;100.00;99436.13;105158;1271;69659;-71
2022/06/11 02:20:26;;;;;;;135.00;35.60;;;;;;;13.89;100.00;99438.22;105158;1271;73230;-71
2022/06/11 02:23:09;;;;;;;85.00;37.30;;;;;;;13.87;100.00;99439.42;105142;1271;61380;-69
2022/06/11 02:25:41;;;;;;;90.20;36.70;;;;;;;13.88;100.00;99440.84;105104;1271;61288;-71
2022/06/11 02:28:16;;;;;;;66.00;35.00;;;;;;;13.86;100.00;99443.23;104889;1271;75201;-71
2022/06/11 02:30:45;;;;;;;57.30;35.10;;;;;;;13.85;100.00;99446.16;105183;1271;69220;-71
2022/06/11 02:33:14;;;;;;;39.00;34.20;;;;;;;13.85;100.00;99441.05;104996;1271;73143;-72
2022/06/11 02:35:59;;;;;;;38.10;34.40;;;;;;;13.83;100.00;99440.04;105096;1271;61410;-72
2022/06/11 02:38:28;;;;;;;34.60;31.30;;;;;;;13.82;100.00;99443.02;105216;1271;61314;-73
2022/06/11 02:41:00;;;;;;;35.70;32.30;;;;;;;13.79;100.00;99448.04;105158;1271;75207;-73
2022/06/11 02:43:27;;;;;;;35.10;31.80;;;;;;;13.77;100.00;99447.83;105145;1271;69382;-73
2022/06/11 02:45:55;;;;;;;37.00;33.40;;;;;;;13.75;100.00;99448.16;105078;1271;72721;-74
2022/06/11 02:48:22;;;;;;;34.60;31.30;;;;;;;13.75;100.00;99449.25;105070;1271;61342;-73
2022/06/11 02:50:49;;;;;;;33.90;30.70;;;;;;;13.75;100.00;99448.90;104830;1271;61376;-73
2022/06/11 02:53:17;;;;;;;36.50;33.00;;;;;;;13.74;100.00;99451.30;105202;1271;75326;-74
2022/06/11 02:55:45;;;;;;;33.90;30.90;;;;;;;13.75;100.00;99456.79;105230;1271;69168;-72
2022/06/11 02:58:14;;;;;;;31.20;28.10;;;;;;;13.75;100.00;99456.01;105234;1271;73185;-73
2022/06/11 03:00:47;;;;;;;30.50;27.80;;;;;;;13.74;100.00;99461.84;105242;1271;61307;-73
2022/06/11 03:03:14;;;;;;;30.80;28.00;;;;;;;13.74;100.00;99466.42;105023;1272;61387;-74
2022/06/11 03:05:42;;;;;;;33.70;30.60;;;;;;;13.78;100.00;99470.46;105009;1271;316860;-75
2022/06/11 03:08:09;;;;;;;32.30;29.40;;;;;;;13.84;100.00;99468.64;105033;1271;69199;-74
2022/06/11 03:10:37;;;;;;;30.30;27.60;;;;;;;13.90;100.00;99471.91;105161;1271;73768;-73
2022/06/11 03:13:05;;;;;;;31.00;28.20;;;;;;;13.97;100.00;99474.07;105124;1271;61304;-74
2022/06/11 03:15:32;;;;;;;31.30;28.60;;;;;;;14.06;100.00;99475.40;105182;1271;61470;-73
2022/06/11 03:17:59;;;;;;;31.30;28.60;;;;;;;14.17;100.00;99475.30;105012;1271;75343;-73
2022/06/11 03:20:28;;;;;;;27.90;25.20;;;;;;;14.26;100.00;99475.00;105183;1271;69252;-73
2022/06/11 03:22:56;;;;;;;26.00;23.70;;;;;;;14.33;100.00;99476.27;104874;1271;73442;-73
2022/06/11 03:25:23;;;;;;;27.60;25.00;;;;;;;14.38;100.00;99481.55;105147;1271;61546;-73
2022/06/11 03:27:50;;;;;;;26.10;23.80;;;;;;;14.69;100.00;99471.19;105198;1271;61340;-73
2022/06/11 03:30:18;;;;;;;23.60;21.30;;;;;;;15.47;100.00;99477.33;105172;1271;75061;-74
2022/06/11 03:32:44;;;;;;;21.30;19.20;;;;;;;16.26;100.00;99478.52;105286;1271;69960;-73
2022/06/11 03:35:12;;;;;;;19.40;17.70;;;;;;;16.89;100.00;99478.02;104910;1271;72393;-73
2022/06/11 03:37:39;;;;;;;20.00;18.00;;;;;;;17.50;100.00;99472.40;104888;1271;61368;-73
2022/06/11 03:40:07;;;;;;;16.10;14.70;;;;;;;18.09;100.00;99471.67;105153;1271;61279;-73
2022/06/11 03:42:34;;;;;;;17.70;16.20;;;;;;;18.71;100.00;99467.66;104987;1271;75324;-72
2022/06/11 03:45:01;;;;;;;16.20;14.90;;;;;;;19.31;100.00;99469.54;105134;1271;70235;-71
2022/06/11 03:47:27;;;;;;;15.90;14.60;;;;;;;19.88;100.00;99467.67;105159;1271;73842;-71
2022/06/11 03:49:54;;;;;;;17.90;16.30;;;;;;;20.40;100.00;99467.92;105185;1270;61358;-71
2022/06/11 03:52:22;;;;;;;18.20;16.30;;;;;;;20.82;100.00;99466.34;104826;1271;61282;-73
2022/06/11 03:54:49;;;;;;;16.30;15.00;;;;;;;21.29;100.00;99461.59;105146;1271;76166;-72
2022/06/11 03:57:16;;;;;;;17.40;15.90;;;;;;;21.63;100.00;99463.58;105168;1268;69172;-73
2022/06/11 03:59:43;;;;;;;17.20;16.00;;;;;;;21.97;100.00;99465.96;105126;1271;73581;-73
2022/06/11 04:02:09;;;;;;;16.60;15.20;;;;;;;22.30;100.00;99462.81;105010;1271;61393;-73
2022/06/11 04:04:36;;;;;;;16.80;15.30;;;;;;;22.69;100.00;99460.19;104995;1271;61831;-72
2022/06/11 04:07:03;;;;;;;16.50;15.30;;;;;;;23.06;100.00;99463.84;105166;1271;74721;-73
2022/06/11 04:09:36;;;;;;;16.70;15.20;;;;;;;23.41;100.00;99465.08;105163;1271;69485;-73
2022/06/11 04:12:09;;;;;;;15.80;14.50;;;;;;;23.75;100.00;99460.83;105151;1271;74376;-73
2022/06/11 04:14:36;;;;;;;15.10;13.80;;;;;;;24.07;100.00;99458.02;105150;1271;61311;-73
2022/06/11 04:17:07;;;;;;;15.40;14.10;;;;;;;24.30;100.00;99456.28;104945;1271;61310;-72
2022/06/11 04:19:38;;;;;;;15.50;14.10;;;;;;;24.41;100.00;99456.56;105123;1271;76338;-72
2022/06/11 04:22:05;;;;;;;15.70;14.50;;;;;;;24.60;100.00;99458.22;104953;1271;68774;-72
2022/06/11 04:24:33;;;;;;;16.20;14.70;;;;;;;24.76;100.00;99456.16;105143;1271;74531;-73
2022/06/11 04:27:01;;;;;;;15.50;14.00;;;;;;;25.03;100.00;99452.91;104906;1271;61343;-73
2022/06/11 04:29:36;;;;;;;16.60;15.20;;;;;;;25.26;100.00;99452.19;105249;1270;61351;-72
2022/06/11 04:32:05;;;;;;;15.50;14.10;;;;;;;25.33;100.00;99452.00;105160;1271;75368;-72
2022/06/11 04:34:33;;;;;;;15.20;14.00;;;;;;;25.61;100.00;99453.33;105209;1270;70170;-73
2022/06/11 04:37:00;;;;;;;15.30;13.90;;;;;;;25.94;100.00;99456.06;105175;1271;73069;-72
2022/06/11 04:39:30;;;;;;;14.70;13.50;;;;;;;26.22;100.00;99453.85;105143;1271;61356;-73
2022/06/11 04:41:58;;;;;;;14.10;12.90;;;;;;;26.48;100.00;99457.17;105211;1271;61304;-72
2022/06/11 04:44:26;;;;;;;13.50;12.40;;;;;;;26.59;100.00;99459.61;105155;1271;75459;-72
2022/06/11 04:46:53;;;;;;;13.40;12.40;;;;;;;26.66;100.00;99461.83;105305;1271;69699;-72
2022/06/11 04:49:20;;;;;;;13.50;12.40;;;;;;;26.95;100.00;99464.15;105243;1271;73625;-72
2022/06/11 04:51:47;;;;;;;12.10;11.00;;;;;;;27.11;100.00;99463.86;104897;1271;61307;-72
2022/06/11 04:54:14;;;;;;;14.50;13.10;;;;;;;27.14;100.00;99464.55;105203;1271;61476;-72
2022/06/11 04:56:41;;;;;;;15.00;13.80;;;;;;;27.21;100.00;99466.42;105161;1270;76350;-72
2022/06/11 04:59:07;;;;;;;13.80;12.70;;;;;;;27.28;100.00;99467.20;104964;1271;70373;-72
2022/06/11 05:01:34;;;;;;;13.10;12.10;;;;;;;27.39;100.00;99470.22;105138;1271;73699;-72
2022/06/11 05:04:01;;;;;;;13.40;12.40;;;;;;;27.51;100.00;99472.73;105154;1271;61253;-72
2022/06/11 05:06:32;;;;;;;13.30;12.10;;;;;;;27.52;100.00;99475.70;105195;1271;62038;-72
2022/06/11 05:08:59;;;;;;;12.80;11.70;;;;;;;27.73;100.00;99472.42;105236;1270;75271;-72
2022/06/11 05:11:25;;;;;;;10.00;9.20;;;;;;;28.23;100.00;99474.91;105175;1270;69124;-71
2022/06/11 05:13:52;;;;;;;10.00;9.00;;;;;;;28.46;100.00;99479.05;105167;1271;72805;-72
2022/06/11 05:16:20;;;;;;;9.40;8.70;;;;;;;28.51;100.00;99477.29;105147;1271;61164;-72
2022/06/11 05:18:47;;;;;;;8.80;8.00;;;;;;;28.34;100.00;99480.02;105171;1271;61316;-72
2022/06/11 05:21:15;;;;;;;8.70;7.70;;;;;;;28.03;100.00;99478.11;105169;1271;75257;-72
2022/06/11 05:23:41;;;;;;;8.30;7.60;;;;;;;28.06;100.00;99478.29;105162;1271;69163;-74
2022/06/11 05:26:09;;;;;;;8.30;7.50;;;;;;;27.89;100.00;99475.63;105108;1271;73727;-74
2022/06/11 05:28:36;;;;;;;6.90;6.30;;;;;;;27.69;100.00;99474.57;105205;1271;61279;-73
2022/06/11 05:31:03;;;;;;;8.80;7.50;;;;;;;27.41;100.00;99482.65;105164;1271;61205;-72
2022/06/11 05:33:29;;;;;;;8.30;7.60;;;;;;;27.21;100.00;99480.77;105136;1271;74676;-72
2022/06/11 05:35:57;;;;;;;8.10;7.30;;;;;;;27.19;100.00;99477.77;104875;1271;61474;-71
2022/06/11 05:38:26;;;;;;;7.50;6.80;;;;;;;27.15;100.00;99480.70;105152;1271;73246;-73
2022/06/11 05:40:55;;;;;;;7.50;6.00;;;;;;;27.23;100.00;99476.70;105169;1271;61389;-72
2022/06/11 05:43:23;;;;;;;7.50;6.80;;;;;;;27.63;100.00;99481.23;105159;1271;61264;-71
2022/06/11 05:45:57;;;;;;;8.80;7.10;;;;;;;27.68;99.14;99482.03;105200;1271;75815;-72
2022/06/11 05:48:29;;;;;;;8.90;8.10;;;;;;;27.74;97.40;99481.64;104853;1272;69348;-72
2022/06/11 05:50:57;;;;;;;8.70;7.80;;;;;;;27.63;96.50;99480.52;104866;1271;73705;-72
2022/06/11 05:53:27;;;;;;;7.40;6.70;;;;;;;27.68;95.72;99475.03;105134;1271;61297;-72
2022/06/11 05:55:57;;;;;;;9.30;8.00;;;;;;;27.61;93.35;99478.95;104894;1274;61345;-72
2022/06/11 05:58:46;;;;;;;9.10;8.20;;;;;;;27.60;93.12;99483.91;105214;1271;75395;-73
2022/06/11 06:01:17;;;;;;;10.50;9.10;;;;;;;27.69;93.09;99479.50;105120;1271;71027;-72
2022/06/11 06:03:44;;;;;;;10.30;9.00;;;;;;;27.63;91.73;99488.18;104955;1271;72254;-73
2022/06/11 06:06:10;;;;;;;9.40;8.40;;;;;;;27.56;92.32;99491.05;105172;1271;61272;-73
2022/06/11 06:08:37;;;;;;;8.10;6.10;;;;;;;27.60;91.08;99497.87;104901;1271;61423;-74
2022/06/11 06:11:04;;;;;;;5.40;4.90;;;;;;;27.58;90.49;99494.60;105164;1271;61281;-74
2022/06/11 06:13:52;;;;;;;7.00;5.20;;;;;;;27.56;88.25;99497.00;105146;1271;68969;-73
2022/06/11 06:16:22;;;;;;;5.90;5.20;;;;;;;27.52;87.94;99497.39;105143;1271;75381;-72
2022/06/11 06:18:50;;;;;;;5.50;4.70;;;;;;;27.54;87.75;99499.89;104925;1272;61465;-74
2022/06/11 06:21:20;;;;;;;5.20;4.30;;;;;;;27.72;87.88;99499.25;105162;1271;61272;-73
2022/06/11 06:23:47;;;;;;;5.10;3.70;;;;;;;27.66;85.83;99504.52;105216;1271;75688;-73
2022/06/11 06:26:14;;;;;;;4.20;3.60;;;;;;;27.60;85.11;99502.24;104945;1271;69423;-74
2022/06/11 06:28:41;;;;;;;5.00;4.00;;;;;;;27.59;84.44;99504.38;105089;1271;73624;-72
2022/06/11 06:31:10;;;;;;;4.60;4.10;;;;;;;27.53;84.58;99504.26;105178;1271;61405;-71
2022/06/11 06:33:37;;;;;;;3.60;3.40;;;;;;;27.34;82.21;99501.93;105218;1271;62275;-72
2022/06/11 06:36:07;;;;;;;4.50;3.50;;;;;;;27.10;81.27;99508.31;105186;1271;76107;-71
2022/06/11 06:38:35;;;;;;;3.50;3.20;;;;;;;26.66;76.92;99506.83;105244;1271;70333;-72
2022/06/11 06:41:01;;;;;;;4.50;4.10;;;;;;;26.21;76.20;99506.08;105157;1271;74594;-72
2022/06/11 06:43:28;;;;;;;3.90;3.40;;;;;;;25.97;76.36;99507.04;105205;1271;61771;-72
2022/06/11 06:45:55;;;;;;;4.10;3.20;;;;;;;26.01;76.88;99509.58;105221;1271;61263;-72
2022/06/11 06:48:21;;;;;;;3.00;2.60;;;;;;;25.87;74.71;99515.13;105193;1271;76266;-70
2022/06/11 06:50:48;;;;;;;4.20;2.60;;;;;;;25.85;72.17;99509.23;105184;1271;70325;-78
2022/06/11 06:53:15;;;;;;;2.80;2.20;;;;;;;25.75;72.71;99513.46;105127;1271;72619;-73
2022/06/11 06:55:42;;;;;;;2.20;2.10;;;;;;;25.82;71.74;99511.77;105157;1271;61340;-73
2022/06/11 06:58:09;;;;;;;2.80;2.40;;;;;;;25.73;71.88;99508.69;104979;1271;61396;-73
2022/06/11 07:00:36;;;;;;;2.50;2.20;;;;;;;25.71;68.97;99513.75;105160;1271;75119;-73
2022/06/11 07:03:03;;;;;;;2.00;1.90;;;;;;;25.35;66.01;99509.48;104964;1271;69209;-72
2022/06/11 07:05:29;;;;;;;2.00;1.70;;;;;;;25.20;67.10;99510.52;105178;1271;74224;-72
2022/06/11 07:07:56;;;;;;;1.90;1.80;;;;;;;25.16;66.45;99508.68;105157;1271;61406;-73
2022/06/11 07:10:24;;;;;;;3.20;2.30;;;;;;;24.80;67.59;99518.77;105184;1271;61412;-71
2022/06/11 07:12:51;;;;;;;2.70;2.20;;;;;;;24.53;67.43;99523.71;105145;1271;76391;-72
2022/06/11 07:15:18;;;;;;;2.70;2.10;;;;;;;24.86;66.45;99521.48;105214;1271;69274;-72
2022/06/11 07:17:54;;;;;;;2.50;1.80;;;;;;;25.05;63.51;99520.27;105142;1271;73426;-72
2022/06/11 07:20:24;;;;;;;3.50;1.80;;;;;;;24.68;63.00;99521.36;105132;1271;61288;-72
2022/06/11 07:23:01;;;;;;;3.90;2.10;;;;;;;24.57;63.27;99520.86;105130;1271;61290;-71
2022/06/11 07:25:29;;;;;;;2.00;1.60;;;;;;;24.91;63.66;99525.96;105141;1271;73529;-71
2022/06/11 07:28:04;;;;;;;1.90;1.80;;;;;;;24.67;63.52;99531.39;105210;1271;68243;-71
2022/06/11 07:30:35;;;;;;;2.00;1.80;;;;;;;24.62;64.43;99532.30;105161;1271;74206;-71
2022/06/11 07:33:10;;;;;;;2.20;2.00;;;;;;;24.77;63.86;99535.04;105148;1270;61308;-72
2022/06/11 07:35:37;;;;;;;2.80;1.60;;;;;;;24.66;62.73;99533.13;105244;1271;61295;-70
2022/06/11 07:38:07;;;;;;;2.10;1.40;;;;;;;24.46;63.13;99533.38;105187;1271;73408;-79
2022/06/11 07:40:34;;;;;;;1.80;1.60;;;;;;;24.57;62.84;99535.81;105170;1271;69204;-75
2022/06/11 07:43:01;;;;;;;2.00;1.60;;;;;;;24.45;61.03;99537.20;104956;1274;72637;-75
2022/06/11 07:45:27;;;;;;;2.90;2.10;;;;;;;24.18;61.28;99534.05;105189;1271;61277;-75
2022/06/11 07:47:54;;;;;;;2.10;2.00;;;;;;;24.09;61.42;99534.80;105200;1270;61352;-75
2022/06/11 07:50:30;;;;;;;3.70;1.80;;;;;;;23.86;60.01;99533.71;104957;1271;74568;-77
2022/06/11 07:52:58;;;;;;;3.20;2.00;;;;;;;23.58;59.31;99537.27;105188;1271;68413;-76
2022/06/11 07:55:25;;;;;;;7.60;2.60;;;;;;;23.38;58.57;99534.45;105155;1271;71509;-75
2022/06/11 07:57:53;;;;;;;3.20;2.50;;;;;;;23.14;58.95;99538.23;105038;1271;61336;-76
2022/06/11 08:00:42;;;;;;;3.40;2.40;;;;;;;23.03;59.01;99541.08;105006;1272;61456;-74
2022/06/11 08:03:09;;;;;;;2.40;1.70;;;;;;;22.99;58.91;99541.11;105159;1271;76091;-76
2022/06/11 08:05:36;;;;;;;3.80;2.10;;;;;;;22.90;59.12;99538.84;105201;1271;68422;-76
2022/06/11 08:08:07;;;;;;;3.20;2.20;;;;;;;22.79;59.89;99534.55;105159;1271;73793;-75
2022/06/11 08:10:36;;;;;;;3.10;2.60;;;;;;;22.88;59.61;99535.98;105265;1271;61275;-76
2022/06/11 08:13:04;;;;;;;2.80;2.40;;;;;;;22.97;59.22;99534.86;105197;1271;61275;-74
2022/06/11 08:15:31;;;;;;;2.70;2.40;;;;;;;22.86;58.62;99537.11;105267;1271;75759;-76
2022/06/11 08:17:58;;;;;;;3.20;2.60;;;;;;;22.73;58.53;99533.46;105199;1271;68949;-74
2022/06/11 08:20:29;;;;;;;4.70;3.10;;;;;;;22.70;58.62;99529.39;105178;1271;73368;-75
2022/06/11 08:22:56;;;;;;;4.50;2.70;;;;;;;22.43;58.42;99529.45;105199;1271;61304;-75
2022/06/11 08:25:23;;;;;;;2.90;2.60;;;;;;;22.37;57.46;99527.27;105211;1271;62809;-75
2022/06/11 08:27:51;;;;;;;6.00;3.20;;;;;;;22.43;57.76;99525.14;105284;1271;74367;-76
2022/06/11 08:30:21;;;;;;;4.00;2.60;;;;;;;22.50;58.61;99525.46;105297;1270;68585;-76
2022/06/11 08:32:48;;;;;;;3.50;2.80;;;;;;;22.72;58.31;99525.48;105276;1271;73229;-77
2022/06/11 08:35:18;;;;;;;3.30;2.20;;;;;;;22.81;56.92;99523.37;105170;1271;61376;-75
2022/06/11 08:37:44;;;;;;;2.70;1.90;;;;;;;22.86;56.76;99524.26;105251;1271;61357;-76
2022/06/11 08:40:21;;;;;;;2.30;1.90;;;;;;;22.92;55.91;99518.70;104981;1271;75792;-74
2022/06/11 08:42:58;;;;;;;3.20;2.20;;;;;;;22.97;56.24;99516.88;105161;1271;69345;-75
2022/06/11 08:45:34;;;;;;;2.50;1.90;;;;;;;22.87;57.29;99517.30;105164;1270;73238;-75
2022/06/11 08:48:12;;;;;;;3.80;2.20;;;;;;;22.86;56.84;99521.16;105194;1271;61384;-76
2022/06/11 08:50:47;;;;;;;2.70;2.30;;;;;;;22.91;57.74;99515.58;105216;1271;61307;-75
2022/06/11 08:53:15;;;;;;;3.60;2.20;;;;;;;23.01;58.71;99512.85;105208;1271;74973;-75
2022/06/11 08:55:41;;;;;;;2.40;2.20;;;;;;;23.29;58.62;99511.79;105198;1271;68237;-75
2022/06/11 08:58:18;;;;;;;5.30;2.00;;;;;;;23.41;57.42;99517.45;105141;1271;61294;-75
2022/06/11 09:00:52;;;;;;;3.20;2.00;;;;;;;23.47;57.25;99513.70;104992;1271;61925;-74
2022/06/11 09:03:41;;;;;;;2.40;2.00;;;;;;;23.62;57.88;99509.05;105152;1271;61242;-74
2022/06/11 09:06:32;;;;;;;3.00;1.90;;;;;;;23.81;56.63;99516.55;104970;1271;75276;-76
2022/06/11 09:09:17;;;;;;;3.60;2.20;;;;;;;23.44;56.21;99514.36;105168;1271;69339;-76
2022/06/11 09:11:43;;;;;;;3.40;2.40;;;;;;;23.04;56.66;99515.53;105171;1271;74398;-75
2022/06/11 09:14:18;;;;;;;1.80;1.50;;;;;;;22.86;55.19;99511.19;105227;1271;61277;-75
2022/06/11 09:17:09;;;;;;;2.10;1.60;;;;;;;22.94;55.95;99507.39;105201;1271;61207;-76
2022/06/11 09:19:52;;;;;;;2.30;1.80;;;;;;;23.17;55.65;99506.66;105003;1271;74850;-76
2022/06/11 09:22:51;;;;;;;2.60;1.90;;;;;;;23.13;54.21;99507.89;105160;1271;69286;-75
2022/06/11 09:25:24;;;;;;;7.40;2.10;;;;;;;23.06;52.18;99504.36;104550;1277;74032;-75
2022/06/11 09:28:14;;;;;;;5.60;2.40;;;;;;;22.98;51.59;99495.80;104621;1277;61400;-75
2022/06/11 09:30:53;;;;;;;3.30;1.40;;;;;;;23.10;51.85;99493.54;104656;1277;61252;-74
2022/06/11 09:33:28;;;;;;;2.20;1.40;;;;;;;23.11;50.00;99498.54;104623;1277;75291;-76
2022/06/11 09:36:06;;;;;;;2.20;1.50;;;;;;;23.17;49.60;99493.23;104606;1277;67380;-75
2022/06/11 09:38:52;;;;;;;1.70;1.60;;;;;;;23.18;49.69;99490.61;104581;1277;74415;-75
2022/06/11 09:41:24;;;;;;;1.60;1.50;;;;;;;23.30;50.07;99492.27;104598;1277;61482;-76
2022/06/11 09:44:17;;;;;;;3.50;1.90;;;;;;;23.37;50.58;99489.06;104642;1277;61393;-73
2022/06/11 09:46:51;;;;;;;1.80;1.60;;;;;;;23.37;49.77;99489.54;104640;1277;75186;-74
2022/06/11 09:49:17;;;;;;;1.70;1.50;;;;;;;23.38;49.11;99488.52;104596;1277;66727;-76
2022/06/11 09:52:07;;;;;;;3.00;1.90;;;;;;;23.36;49.53;99482.25;104611;1277;61306;-75
2022/06/11 09:55:12;;;;;;;1.70;1.60;;;;;;;23.41;49.35;99483.30;104454;1280;61345;-76
2022/06/11 09:57:44;;;;;;;2.60;1.90;;;;;;;23.47;49.21;99483.81;104634;1277;61376;-75
2022/06/11 10:00:27;;;;;;;2.30;2.10;;;;;;;23.45;48.86;99478.37;104637;1277;75282;-76
2022/06/11 10:03:32;;;;;;;2.70;2.00;;;;;;;23.45;48.72;99484.73;104917;1271;69360;-77
2022/06/11 10:06:03;;;;;;;2.70;2.10;;;;;;;23.34;48.51;99481.98;105215;1271;73362;-76
2022/06/11 10:09:00;;;;;;;4.30;2.30;;;;;;;23.40;49.25;99474.90;105205;1270;61263;-77
2022/06/11 10:11:38;;;;;;;3.20;2.00;;;;;;;23.54;49.22;99469.23;105197;1271;61271;-78
2022/06/11 10:14:38;;;;;;;3.10;1.80;;;;;;;23.61;49.01;99471.32;105231;1271;76345;-76
2022/06/11 10:17:26;;;;;;;2.30;1.70;;;;;;;23.59;47.08;99476.59;104595;1277;70426;-77
2022/06/11 10:20:07;;;;;;;2.10;1.90;;;;;;;23.56;47.64;99470.73;104648;1277;73378;-77
2022/06/11 10:22:46;;;;;;;2.20;1.60;;;;;;;23.61;47.54;99469.08;104664;1277;61362;-77
2022/06/11 10:25:50;;;;;;;2.80;1.80;;;;;;;23.69;47.67;99464.23;104640;1277;61224;-77
2022/06/11 10:28:23;;;;;;;3.10;1.60;;;;;;;23.62;46.56;99459.88;104593;1277;75237;-77
2022/06/11 10:31:08;;;;;;;2.00;1.50;;;;;;;23.48;45.81;99462.02;104601;1277;70442;-77
2022/06/11 10:33:57;;;;;;;2.20;1.70;;;;;;;23.43;46.57;99458.11;104560;1277;73290;-76
2022/06/11 10:36:32;;;;;;;2.70;1.90;;;;;;;23.39;44.89;99455.39;104594;1277;61285;-78
2022/06/11 10:39:02;;;;;;;2.30;1.70;;;;;;;23.35;45.65;99449.75;104706;1277;61357;-77
2022/06/11 10:41:48;;;;;;;3.10;2.00;;;;;;;23.44;45.96;99446.37;104613;1278;75405;-76
2022/06/11 10:44:35;;;;;;;4.80;2.00;;;;;;;23.48;45.67;99441.17;104619;1277;70310;-76
2022/06/11 10:47:41;;;;;;;2.50;1.60;;;;;;;23.56;46.06;99441.70;104622;1278;73583;-76
2022/06/11 10:50:14;;;;;;;3.50;2.00;;;;;;;23.67;46.10;99436.30;103942;1286;61433;-76
2022/06/11 10:53:00;;;;;;;3.20;1.60;;;;;;;23.79;46.61;99432.97;103917;1286;61383;-77
2022/06/11 10:55:32;;;;;;;2.40;1.40;;;;;;;23.85;45.74;99434.02;104496;1277;74686;-77
2022/06/11 10:58:10;;;;;;;3.50;1.50;;;;;;;23.78;43.55;99437.64;104644;1277;68164;-77
2022/06/11 11:00:53;;;;;;;1.70;1.40;;;;;;;23.70;44.10;99436.70;104634;1277;74328;-78
2022/06/11 11:03:25;;;;;;;2.60;1.40;;;;;;;23.79;44.28;99439.51;104274;1281;61298;-75
2022/06/11 11:05:59;;;;;;;2.00;1.40;;;;;;;23.86;44.00;99435.41;104681;1277;61243;-77
2022/06/11 11:08:26;;;;;;;5.50;1.40;;;;;;;23.91;44.59;99427.81;104684;1277;75369;-77
2022/06/11 11:10:54;;;;;;;2.70;1.60;;;;;;;23.99;43.94;99432.83;104659;1277;69558;-77
2022/06/11 11:13:23;;;;;;;1.60;1.20;;;;;;;24.07;43.53;99427.56;104410;1281;74559;-77
2022/06/11 11:16:01;;;;;;;1.80;1.30;;;;;;;24.11;43.20;99425.05;104295;1281;61530;-77
2022/06/11 11:18:45;;;;;;;2.60;1.30;;;;;;;24.15;43.66;99425.29;104748;1277;61701;-78
2022/06/11 11:21:27;;;;;;;2.40;1.50;;;;;;;24.24;42.22;99425.71;104655;1277;75500;-77
2022/06/11 11:24:01;;;;;;;2.20;1.10;;;;;;;24.22;41.97;99424.50;104670;1277;69350;-77
2022/06/11 11:26:41;;;;;;;2.30;1.00;;;;;;;24.21;42.42;99420.11;104675;1275;73457;-77
2022/06/11 11:29:31;;;;;;;4.60;1.10;;;;;;;24.31;42.41;99416.95;105265;1271;61573;-77
2022/06/11 11:32:02;;;;;;;1.90;1.10;;;;;;;24.37;40.01;99418.24;105185;1271;61254;-71
2022/06/11 11:34:41;;;;;;;3.00;1.00;;;;;;;24.27;39.80;99417.34;105085;1271;76224;-71
2022/06/11 11:37:13;;;;;;;2.80;1.20;;;;;;;24.27;40.25;99410.67;105189;1270;69163;-72
2022/06/11 11:39:56;;;;;;;1.80;1.00;;;;;;;24.32;40.15;99407.71;105195;1271;74458;-72